createdAt,value
2018-09-18T00:02:01.349Z,2.70
2018-09-18T00:04:29.611Z,2.50
2018-09-18T00:06:57.892Z,2.67
2018-09-18T00:09:26.159Z,2.83
2018-09-18T00:11:54.438Z,2.57
2018-09-18T00:14:22.697Z,2.80
2018-09-18T00:16:50.980Z,2.70
2018-09-18T00:19:19.242Z,2.57
2018-09-18T00:21:47.515Z,2.33
2018-09-18T00:24:15.805Z,2.70
2018-09-18T00:26:44.064Z,2.97
2018-09-18T00:29:12.364Z,2.77
2018-09-18T00:31:40.624Z,2.90
2018-09-18T00:34:08.896Z,3.10
2018-09-18T00:36:37.172Z,2.80
2018-09-18T00:39:07.026Z,3.00
2018-09-18T00:41:35.380Z,2.90
2018-09-18T00:44:03.636Z,3.00
2018-09-18T00:46:31.930Z,3.00
2018-09-18T00:49:00.184Z,3.00
2018-09-18T00:51:28.459Z,2.90
2018-09-18T00:53:56.733Z,2.80
2018-09-18T00:56:24.993Z,2.73
2018-09-18T00:58:53.267Z,2.97
2018-09-18T01:01:21.566Z,3.03
2018-09-18T01:03:49.873Z,2.83
2018-09-18T01:06:18.148Z,2.93
2018-09-18T01:08:46.397Z,3.27
2018-09-18T01:11:14.722Z,3.07
2018-09-18T01:13:43.029Z,3.07
2018-09-18T01:16:11.299Z,3.27
2018-09-18T01:18:40.877Z,3.40
2018-09-18T01:21:09.808Z,3.33
2018-09-18T01:23:38.140Z,3.10
2018-09-18T01:26:06.407Z,3.47
2018-09-18T01:28:35.341Z,3.27
2018-09-18T01:31:03.847Z,3.63
2018-09-18T01:33:32.116Z,3.50
2018-09-18T01:36:00.371Z,3.13
2018-09-18T01:38:28.655Z,3.43
2018-09-18T01:40:56.924Z,3.30
2018-09-18T01:43:25.184Z,3.40
2018-09-18T01:45:53.455Z,3.30
2018-09-18T01:48:21.727Z,3.50
2018-09-18T01:50:49.985Z,3.33
2018-09-18T01:53:18.239Z,3.33
2018-09-18T01:55:46.537Z,3.60
2018-09-18T01:58:14.796Z,3.33
2018-09-18T02:00:43.059Z,3.33
2018-09-18T02:03:11.355Z,3.33
2018-09-18T02:05:39.620Z,3.53
2018-09-18T02:08:07.884Z,3.47
2018-09-18T02:10:36.136Z,3.37
2018-09-18T02:13:04.432Z,4.20
2018-09-18T02:15:32.721Z,3.20
2018-09-18T02:18:00.984Z,3.20
2018-09-18T02:20:29.268Z,3.97
2018-09-18T02:22:57.549Z,3.53
2018-09-18T02:25:25.805Z,3.33
2018-09-18T02:27:54.162Z,3.33
2018-09-18T02:30:22.484Z,3.60
2018-09-18T02:32:50.769Z,3.60
2018-09-18T02:35:19.306Z,3.50
2018-09-18T02:37:47.692Z,3.43
2018-09-18T02:40:15.986Z,3.60
2018-09-18T02:42:44.257Z,3.70
2018-09-18T02:45:12.524Z,3.83
2018-09-18T02:47:40.800Z,3.60
2018-09-18T02:50:09.079Z,3.87
2018-09-18T02:52:37.364Z,3.70
2018-09-18T02:55:05.847Z,3.70
2018-09-18T02:57:34.344Z,3.53
2018-09-18T03:00:02.622Z,3.60
2018-09-18T03:02:30.880Z,3.57
2018-09-18T03:04:59.160Z,3.40
2018-09-18T03:07:27.434Z,3.53
2018-09-18T03:09:55.696Z,3.70
2018-09-18T03:12:23.963Z,2.97
2018-09-18T03:14:52.232Z,3.43
2018-09-18T03:17:20.513Z,3.07
2018-09-18T03:19:48.793Z,3.20
2018-09-18T03:22:17.071Z,2.83
2018-09-18T03:24:45.345Z,2.97
2018-09-18T03:27:13.642Z,3.30
2018-09-18T03:29:41.875Z,3.60
2018-09-18T03:32:10.150Z,3.30
2018-09-18T03:34:38.425Z,3.20
2018-09-18T03:37:06.693Z,3.00
2018-09-18T03:39:34.974Z,3.23
2018-09-18T03:42:03.397Z,2.90
2018-09-18T03:44:31.659Z,3.20
2018-09-18T03:46:59.951Z,3.00
2018-09-18T03:49:28.225Z,3.00
2018-09-18T03:51:56.517Z,2.80
2018-09-18T03:54:24.795Z,3.00
2018-09-18T03:56:53.072Z,3.07
2018-09-18T03:59:21.349Z,2.90
2018-09-18T04:01:49.617Z,3.20
2018-09-18T04:04:17.893Z,2.83
2018-09-18T04:06:46.165Z,2.80
2018-09-18T04:09:14.460Z,3.10
2018-09-18T04:11:42.750Z,3.00
2018-09-18T04:14:11.033Z,2.80
2018-09-18T04:16:39.297Z,2.90
2018-09-18T04:19:07.589Z,2.90
2018-09-18T04:21:39.321Z,2.90
2018-09-18T04:24:07.581Z,2.90
2018-09-18T04:26:36.281Z,2.93
2018-09-18T04:29:04.766Z,3.20
2018-09-18T04:31:33.051Z,2.97
2018-09-18T04:34:01.325Z,3.10
2018-09-18T04:36:29.613Z,2.90
2018-09-18T04:38:58.695Z,2.70
2018-09-18T04:41:26.955Z,3.03
2018-09-18T04:43:55.245Z,3.00
2018-09-18T04:46:23.876Z,3.10
2018-09-18T04:48:52.269Z,3.00
2018-09-18T04:51:20.631Z,2.97
2018-09-18T04:53:49.014Z,2.90
2018-09-18T04:56:17.291Z,2.63
2018-09-18T04:58:46.333Z,2.90
2018-09-18T05:01:14.625Z,3.20
2018-09-18T05:03:42.928Z,2.80
2018-09-18T05:06:11.177Z,2.97
2018-09-18T05:08:42.251Z,2.90
2018-09-18T05:11:10.539Z,3.30
2018-09-18T05:13:38.841Z,2.70
2018-09-18T05:16:07.107Z,2.97
2018-09-18T05:18:35.421Z,2.80
2018-09-18T05:21:03.709Z,3.10
2018-09-18T05:23:31.980Z,3.20
2018-09-18T05:26:00.269Z,2.90
2018-09-18T05:28:28.558Z,3.00
2018-09-18T05:30:56.864Z,3.10
2018-09-18T05:33:25.739Z,2.93
2018-09-18T05:35:54.096Z,2.83
2018-09-18T05:38:22.487Z,3.37
2018-09-18T05:40:50.773Z,3.10
2018-09-18T05:43:19.061Z,2.80
2018-09-18T05:45:47.317Z,3.00
2018-09-18T05:48:15.729Z,3.00
2018-09-18T05:50:43.875Z,2.80
2018-09-18T05:53:12.512Z,2.97
2018-09-18T05:55:41.100Z,3.10
2018-09-18T05:58:09.385Z,3.00
2018-09-18T06:00:37.666Z,2.97
2018-09-18T06:03:05.935Z,3.40
2018-09-18T06:05:34.225Z,3.13
2018-09-18T06:08:02.483Z,3.00
2018-09-18T06:10:30.749Z,3.00
2018-09-18T06:12:59.045Z,3.03
2018-09-18T06:15:27.712Z,3.03
2018-09-18T06:17:56.010Z,3.00
2018-09-18T06:20:24.273Z,3.20
2018-09-18T06:22:52.568Z,2.97
2018-09-18T06:25:20.844Z,3.30
2018-09-18T06:27:49.117Z,3.37
2018-09-18T06:30:17.389Z,3.20
2018-09-18T06:32:45.661Z,3.00
2018-09-18T06:35:13.963Z,3.00
2018-09-18T06:37:43.163Z,3.30
2018-09-18T06:40:11.715Z,3.20
2018-09-18T06:42:40.009Z,3.30
2018-09-18T06:45:08.345Z,3.40
2018-09-18T06:47:36.659Z,3.30
2018-09-18T06:50:04.945Z,3.50
2018-09-18T06:52:33.241Z,3.33
2018-09-18T06:55:01.727Z,3.37
2018-09-18T06:57:30.013Z,3.20
2018-09-18T06:59:58.481Z,3.27
2018-09-18T07:02:26.760Z,3.10
2018-09-18T07:04:55.069Z,3.20
2018-09-18T07:07:23.433Z,3.33
2018-09-18T07:09:51.719Z,3.20
2018-09-18T07:12:19.999Z,3.57
2018-09-18T07:14:48.309Z,3.43
2018-09-18T07:17:16.574Z,3.30
2018-09-18T07:19:44.919Z,3.50
2018-09-18T07:22:13.201Z,3.40
2018-09-18T07:24:41.491Z,3.93
2018-09-18T07:27:09.787Z,3.43
2018-09-18T07:29:38.689Z,4.20
2018-09-18T07:32:07.752Z,3.90
2018-09-18T07:34:36.037Z,3.77
2018-09-18T07:37:04.339Z,3.63
2018-09-18T07:39:32.591Z,3.90
2018-09-18T07:42:00.865Z,4.30
2018-09-18T07:44:29.179Z,4.03
2018-09-18T07:46:57.447Z,4.23
2018-09-18T07:49:25.726Z,4.10
2018-09-18T07:51:54.015Z,4.00
2018-09-18T07:54:22.292Z,4.33
2018-09-18T07:56:50.556Z,4.60
2018-09-18T07:59:18.844Z,5.07
2018-09-18T08:01:47.151Z,4.37
2018-09-18T08:04:15.454Z,4.93
2018-09-18T08:06:43.741Z,4.47
2018-09-18T08:09:12.071Z,4.70
2018-09-18T08:11:40.434Z,4.90
2018-09-18T08:14:08.700Z,4.87
2018-09-18T08:16:36.969Z,4.90
2018-09-18T08:19:05.658Z,5.53
2018-09-18T08:21:34.181Z,5.10
2018-09-18T08:24:02.437Z,5.20
2018-09-18T08:26:30.716Z,5.10
2018-09-18T08:28:59.213Z,4.97
2018-09-18T08:31:27.471Z,4.67
2018-09-18T08:33:55.980Z,5.00
2018-09-18T08:36:24.255Z,4.93
2018-09-18T08:38:52.613Z,4.93
2018-09-18T08:41:20.910Z,5.27
2018-09-18T08:43:49.209Z,5.07
2018-09-18T08:46:17.504Z,5.17
2018-09-18T08:48:57.920Z,4.97
2018-09-18T08:51:26.549Z,5.20
2018-09-18T08:53:54.863Z,4.80
2018-09-18T08:56:23.164Z,5.30
2018-09-18T08:58:51.820Z,5.50
2018-09-18T09:01:20.149Z,4.83
2018-09-18T09:03:48.765Z,4.93
2018-09-18T09:06:16.993Z,4.87
2018-09-18T09:08:45.344Z,5.20
2018-09-18T09:11:13.543Z,4.87
2018-09-18T09:13:41.814Z,5.40
2018-09-18T09:16:10.122Z,5.30
2018-09-18T09:18:38.446Z,5.03
2018-09-18T09:21:06.743Z,4.87
2018-09-18T09:23:35.053Z,4.97
2018-09-18T09:26:03.319Z,4.83
2018-09-18T09:28:31.584Z,4.70
2018-09-18T09:30:59.870Z,5.00
2018-09-18T09:33:28.128Z,5.60
2018-09-18T09:35:56.407Z,5.00
2018-09-18T09:38:24.674Z,5.10
2018-09-18T09:40:52.924Z,4.97
2018-09-18T09:43:21.213Z,5.47
2018-09-18T09:45:49.500Z,5.10
2018-09-18T09:48:17.764Z,5.20
2018-09-18T09:50:46.054Z,5.10
2018-09-18T09:53:14.317Z,5.60
2018-09-18T09:55:42.683Z,5.87
2018-09-18T09:58:10.972Z,5.70
2018-09-18T10:00:45.351Z,4.97
2018-09-18T10:03:14.402Z,5.30
2018-09-18T10:05:42.677Z,4.80
2018-09-18T10:08:10.945Z,4.93
2018-09-18T10:10:39.320Z,5.00
2018-09-18T10:13:07.514Z,5.23
2018-09-18T10:15:35.802Z,5.20
2018-09-18T10:18:04.137Z,5.30
2018-09-18T10:20:32.442Z,5.23
2018-09-18T10:23:00.729Z,5.23
2018-09-18T10:25:28.994Z,5.27
2018-09-18T10:27:57.256Z,5.07
2018-09-18T10:30:25.571Z,5.63
2018-09-18T10:32:53.817Z,5.37
2018-09-18T10:35:22.077Z,5.37
2018-09-18T10:37:50.362Z,5.03
2018-09-18T10:40:18.636Z,5.60
2018-09-18T10:42:47.033Z,5.53
2018-09-18T10:45:15.220Z,5.33
2018-09-18T10:47:43.485Z,5.50
2018-09-18T10:50:11.765Z,4.97
2018-09-18T10:52:40.031Z,5.33
2018-09-18T10:55:08.342Z,5.47
2018-09-18T10:57:36.629Z,5.13
2018-09-18T11:00:06.141Z,5.10
2018-09-18T11:02:34.421Z,5.33
2018-09-18T11:05:02.717Z,5.20
2018-09-18T11:07:31.299Z,5.10
2018-09-18T11:09:59.611Z,5.00
2018-09-18T11:12:27.853Z,5.40
2018-09-18T11:14:56.185Z,5.50
2018-09-18T11:17:24.442Z,5.60
2018-09-18T11:19:52.907Z,5.10
2018-09-18T11:22:21.256Z,5.60
2018-09-18T11:24:49.554Z,5.63
2018-09-18T11:27:18.874Z,6.03
2018-09-18T11:29:47.179Z,5.13
2018-09-18T11:32:15.482Z,5.23
2018-09-18T11:34:43.775Z,5.57
2018-09-18T11:37:12.061Z,5.20
2018-09-18T11:39:40.334Z,5.30
2018-09-18T11:42:08.623Z,5.30
2018-09-18T11:44:36.943Z,5.27
2018-09-18T11:47:05.209Z,5.63
2018-09-18T11:49:33.515Z,5.40
2018-09-18T11:52:01.792Z,5.30
2018-09-18T11:54:30.060Z,5.50
2018-09-18T11:56:58.440Z,5.63
2018-09-18T11:59:26.717Z,5.53
2018-09-18T12:01:55.009Z,5.70
2018-09-18T12:04:23.282Z,5.27
2018-09-18T12:06:51.548Z,5.03
2018-09-18T12:09:19.826Z,5.50
2018-09-18T12:11:48.559Z,5.60
2018-09-18T12:14:16.859Z,5.30
2018-09-18T12:16:45.166Z,5.70
2018-09-18T12:19:13.501Z,5.60
2018-09-18T12:21:41.745Z,5.43
2018-09-18T12:24:10.117Z,5.60
2018-09-18T12:26:38.409Z,5.60
2018-09-18T12:29:06.739Z,5.30
2018-09-18T12:31:35.029Z,4.70
2018-09-18T12:34:03.293Z,5.57
2018-09-18T12:36:31.581Z,5.40
2018-09-18T12:38:59.850Z,5.83
2018-09-18T12:41:28.189Z,5.83
2018-09-18T12:43:56.413Z,4.87
2018-09-18T12:46:24.683Z,5.13
2018-09-18T12:48:52.971Z,5.60
2018-09-18T12:51:21.242Z,5.63
2018-09-18T12:53:49.702Z,5.57
2018-09-18T12:56:18.918Z,5.57
2018-09-18T12:58:47.260Z,5.67
2018-09-18T13:01:15.463Z,5.80
2018-09-18T13:03:43.736Z,5.80
2018-09-18T13:06:12.275Z,5.80
2018-09-18T13:08:40.452Z,5.47
2018-09-18T13:11:08.747Z,6.00
2018-09-18T13:13:37.777Z,5.87
2018-09-18T13:16:07.256Z,6.27
2018-09-18T13:18:35.763Z,5.40
2018-09-18T13:21:04.058Z,5.53
2018-09-18T13:23:32.344Z,5.40
2018-09-18T13:26:01.575Z,5.80
2018-09-18T13:28:29.833Z,5.30
2018-09-18T13:30:58.112Z,5.90
2018-09-18T13:33:26.392Z,5.83
2018-09-18T13:35:54.661Z,5.43
2018-09-18T13:38:23.199Z,5.50
2018-09-18T13:40:51.499Z,5.60
2018-09-18T13:43:19.792Z,5.30
2018-09-18T13:45:48.982Z,5.90
2018-09-18T13:48:17.314Z,5.50
2018-09-18T13:50:45.594Z,5.53
2018-09-18T13:53:13.872Z,4.87
2018-09-18T13:55:42.199Z,5.50
2018-09-18T13:58:10.473Z,5.10
2018-09-18T14:00:39.292Z,5.70
2018-09-18T14:03:07.582Z,5.33
2018-09-18T14:05:35.929Z,5.73
2018-09-18T14:08:04.408Z,5.00
2018-09-18T14:10:32.700Z,5.47
2018-09-18T14:13:00.984Z,6.00
2018-09-18T14:15:29.283Z,5.43
2018-09-18T14:17:57.625Z,5.93
2018-09-18T14:20:26.029Z,5.77
2018-09-18T14:22:54.286Z,7.00
2018-09-18T14:25:23.338Z,10.23
2018-09-18T14:27:51.694Z,7.33
2018-09-18T14:30:19.998Z,6.03
2018-09-18T14:32:48.286Z,7.10
2018-09-18T14:35:16.568Z,7.20
2018-09-18T14:37:44.869Z,7.13
2018-09-18T14:40:13.159Z,6.40
2018-09-18T14:42:41.438Z,6.33
2018-09-18T14:45:09.752Z,6.00
2018-09-18T14:47:38.017Z,6.07
2018-09-18T14:50:06.378Z,5.90
2018-09-18T14:52:34.803Z,5.77
2018-09-18T14:55:03.077Z,5.30
2018-09-18T14:57:31.401Z,5.33
2018-09-18T14:59:59.741Z,5.43
2018-09-18T15:02:28.000Z,5.63
2018-09-18T15:04:56.361Z,5.60
2018-09-18T15:07:24.626Z,5.10
2018-09-18T15:09:52.880Z,5.23
2018-09-18T15:12:21.150Z,4.97
2018-09-18T15:14:49.435Z,5.07
2018-09-18T15:17:17.745Z,5.30
2018-09-18T15:19:46.082Z,5.10
2018-09-18T15:22:14.372Z,5.17
2018-09-18T15:24:42.624Z,4.93
2018-09-18T15:27:10.918Z,5.13
2018-09-18T15:29:39.231Z,5.57
2018-09-18T15:32:07.524Z,5.50
2018-09-18T15:34:35.935Z,5.20
2018-09-18T15:37:04.270Z,5.07
2018-09-18T15:39:32.587Z,5.10
2018-09-18T15:42:00.913Z,5.00
2018-09-18T15:44:29.189Z,7.13
2018-09-18T15:46:57.482Z,6.40
2018-09-18T15:49:26.122Z,5.60
2018-09-18T15:51:54.447Z,5.70
2018-09-18T15:54:22.729Z,5.67
2018-09-18T15:56:51.964Z,5.80
2018-09-18T15:59:20.279Z,5.13
2018-09-18T16:01:48.640Z,5.13
2018-09-18T16:04:16.939Z,5.37
2018-09-18T16:06:45.237Z,4.67
2018-09-18T16:09:13.540Z,5.10
2018-09-18T16:11:41.836Z,4.87
2018-09-18T16:14:11.106Z,5.00
2018-09-18T16:16:39.422Z,4.60
2018-09-18T16:19:08.290Z,5.10
2018-09-18T16:21:36.576Z,4.90
2018-09-18T16:24:04.920Z,4.73
2018-09-18T16:26:33.282Z,4.73
2018-09-18T16:29:01.640Z,4.80
2018-09-18T16:31:29.974Z,5.00
2018-09-18T16:33:58.274Z,6.10
2018-09-18T16:36:27.698Z,5.63
2018-09-18T16:38:56.073Z,6.40
2018-09-18T16:41:25.064Z,8.90
2018-09-18T16:43:53.743Z,6.93
2018-09-18T16:46:22.041Z,6.50
2018-09-18T16:48:50.360Z,5.90
2018-09-18T16:51:18.702Z,5.47
2018-09-18T16:53:47.054Z,5.60
2018-09-18T16:56:15.464Z,6.27
2018-09-18T16:58:43.910Z,5.93
2018-09-18T17:01:12.373Z,5.77
2018-09-18T17:03:41.388Z,6.50
2018-09-18T17:06:09.686Z,6.07
2018-09-18T17:08:38.020Z,6.07
2018-09-18T17:11:06.407Z,5.40
2018-09-18T17:13:34.821Z,5.23
2018-09-18T17:16:03.137Z,7.10
2018-09-18T17:18:32.343Z,9.73
2018-09-18T17:21:00.646Z,16.93
2018-09-18T17:23:28.995Z,19.97
2018-09-18T17:25:58.152Z,21.17
2018-09-18T17:28:26.516Z,20.57
2018-09-18T17:30:54.759Z,16.90
2018-09-18T17:33:23.115Z,14.87
2018-09-18T17:35:51.510Z,10.37
2018-09-18T17:38:19.894Z,8.90
2018-09-18T17:40:48.181Z,10.97
2018-09-18T17:43:16.494Z,11.67
2018-09-18T17:45:44.955Z,12.57
2018-09-18T17:48:13.278Z,14.53
2018-09-18T17:50:41.610Z,12.33
2018-09-18T17:53:09.934Z,11.00
2018-09-18T17:55:38.263Z,8.47
2018-09-18T17:58:06.569Z,8.40
2018-09-18T18:00:35.104Z,7.97
2018-09-18T18:03:03.453Z,7.13
2018-09-18T18:05:31.928Z,7.00
2018-09-18T18:08:00.272Z,6.60
2018-09-18T18:10:29.561Z,6.60
2018-09-18T18:12:57.908Z,6.20
2018-09-18T18:15:26.253Z,6.60
2018-09-18T18:17:54.619Z,5.70
2018-09-18T18:20:24.081Z,6.10
2018-09-18T18:22:52.479Z,5.67
2018-09-18T18:25:21.063Z,5.87
2018-09-18T18:27:49.510Z,5.90
2018-09-18T18:30:18.430Z,6.17
2018-09-18T18:32:47.852Z,6.40
2018-09-18T18:35:16.343Z,6.17
2018-09-18T18:37:45.418Z,6.60
2018-09-18T18:40:14.085Z,5.73
2018-09-18T18:42:42.485Z,5.80
2018-09-18T18:45:10.900Z,6.57
2018-09-18T18:47:39.333Z,5.70
2018-09-18T18:50:07.766Z,5.93
2018-09-18T18:52:36.268Z,5.30
2018-09-18T18:55:05.903Z,5.63
2018-09-18T18:57:34.579Z,5.37
2018-09-18T19:00:02.975Z,5.57
2018-09-18T19:02:31.471Z,5.40
2018-09-18T19:04:59.971Z,5.50
2018-09-18T19:07:28.789Z,5.20
2018-09-18T19:09:57.301Z,5.80
2018-09-18T19:12:25.861Z,5.27
2018-09-18T19:14:54.273Z,5.63
2018-09-18T19:17:22.702Z,5.27
2018-09-18T19:19:51.328Z,5.60
2018-09-18T19:22:19.809Z,5.23
2018-09-18T19:24:48.319Z,5.73
2018-09-18T19:27:16.870Z,5.40
2018-09-18T19:29:45.320Z,5.60
2018-09-18T19:32:13.763Z,5.83
2018-09-18T19:34:42.616Z,5.30
2018-09-18T19:37:12.376Z,5.40
2018-09-18T19:39:41.758Z,5.70
2018-09-18T19:42:10.245Z,4.80
2018-09-18T19:44:38.654Z,5.00
2018-09-18T19:47:07.146Z,5.00
2018-09-18T19:49:39.246Z,5.00
2018-09-18T19:52:08.860Z,4.90
2018-09-18T19:54:37.213Z,4.50
2018-09-18T19:57:06.061Z,5.13
2018-09-18T19:59:35.454Z,4.73
2018-09-18T20:02:03.845Z,5.23
2018-09-18T20:04:32.239Z,4.83
2018-09-18T20:07:00.642Z,5.10
2018-09-18T20:09:29.125Z,5.03
2018-09-18T20:11:58.197Z,5.17
2018-09-18T20:14:26.594Z,5.57
2018-09-18T20:16:56.574Z,5.27
2018-09-18T20:19:26.224Z,5.17
2018-09-18T20:21:54.802Z,5.13
2018-09-18T20:24:24.954Z,5.30
2018-09-18T20:26:54.123Z,4.97
2018-09-18T20:29:22.515Z,5.00
2018-09-18T20:31:50.861Z,5.33
2018-09-18T20:34:19.211Z,5.00
2018-09-18T20:36:47.696Z,4.97
2018-09-18T20:39:16.047Z,4.57
2018-09-18T20:41:44.470Z,4.13
2018-09-18T20:44:12.853Z,4.43
2018-09-18T20:46:41.204Z,4.43
2018-09-18T20:49:09.555Z,4.63
2018-09-18T20:51:37.917Z,4.47
2018-09-18T20:54:06.278Z,4.30
2018-09-18T20:56:34.610Z,4.70
2018-09-18T20:59:02.929Z,4.17
2018-09-18T21:01:31.291Z,4.43
2018-09-18T21:03:59.572Z,3.90
2018-09-18T21:06:27.868Z,4.27
2018-09-18T21:08:56.171Z,4.10
2018-09-18T21:11:24.527Z,4.27
2018-09-18T21:13:52.818Z,4.00
2018-09-18T21:16:21.082Z,3.90
2018-09-18T21:18:49.411Z,4.00
2018-09-18T21:21:17.700Z,4.30
2018-09-18T21:23:46.909Z,3.97
2018-09-18T21:26:18.274Z,3.80
2018-09-18T21:28:47.487Z,3.83
2018-09-18T21:31:15.903Z,3.90
2018-09-18T21:33:44.181Z,4.00
2018-09-18T21:36:12.549Z,3.40
2018-09-18T21:38:40.838Z,4.30
2018-09-18T21:41:09.129Z,3.80
2018-09-18T21:43:37.403Z,3.53
2018-09-18T21:46:05.688Z,3.50
2018-09-18T21:48:33.967Z,3.67
2018-09-18T21:51:02.252Z,3.20
2018-09-18T21:53:30.578Z,3.33
2018-09-18T21:55:58.847Z,3.90
2018-09-18T21:58:27.130Z,3.33
2018-09-18T22:00:55.391Z,4.00
2018-09-18T22:03:23.667Z,4.47
2018-09-18T22:05:51.937Z,4.63
2018-09-18T22:08:20.207Z,4.33
2018-09-18T22:10:48.511Z,5.63
2018-09-18T22:13:16.787Z,5.60
2018-09-18T22:15:45.065Z,6.20
2018-09-18T22:18:13.307Z,5.43
2018-09-18T22:20:41.600Z,5.30
2018-09-18T22:23:09.875Z,5.40
2018-09-18T22:25:38.163Z,4.73
2018-09-18T22:28:06.473Z,4.50
2018-09-18T22:30:34.737Z,4.10
2018-09-18T22:33:03.027Z,4.50
2018-09-18T22:35:31.501Z,4.40
2018-09-18T22:37:59.795Z,4.00
2018-09-18T22:40:28.068Z,3.80
2018-09-18T22:42:56.578Z,3.67
2018-09-18T22:45:24.890Z,3.63
2018-09-18T22:47:53.158Z,3.97
2018-09-18T22:50:21.413Z,4.10
2018-09-18T22:52:49.727Z,3.93
2018-09-18T22:55:17.994Z,4.00
2018-09-18T22:57:46.314Z,3.40
2018-09-18T23:00:14.590Z,3.40
2018-09-18T23:02:43.106Z,3.70
2018-09-18T23:05:11.387Z,3.43
2018-09-18T23:07:39.681Z,3.77
2018-09-18T23:10:07.957Z,3.53
2018-09-18T23:12:36.313Z,3.73
2018-09-18T23:15:04.643Z,3.50
2018-09-18T23:17:33.918Z,3.50
2018-09-18T23:20:02.200Z,3.37
2018-09-18T23:22:30.487Z,3.57
2018-09-18T23:24:58.715Z,3.53
2018-09-18T23:27:27.005Z,3.47
2018-09-18T23:29:55.312Z,3.70
2018-09-18T23:32:24.489Z,3.80
2018-09-18T23:34:52.773Z,3.60
2018-09-18T23:37:21.044Z,3.93
2018-09-18T23:39:49.297Z,4.13
2018-09-18T23:42:17.708Z,3.87
2018-09-18T23:44:45.969Z,3.97
2018-09-18T23:47:15.640Z,3.50
2018-09-18T23:49:43.899Z,4.40
2018-09-18T23:52:12.175Z,4.23
2018-09-18T23:54:40.433Z,3.83
2018-09-18T23:57:08.694Z,3.80
2018-09-18T23:59:36.946Z,4.30
